sensor_id;sensor_type;location;lat;lon;timestamp;P1;durP1;ratioP1;P2;durP2;ratioP2
54787;SDS011;59598;48.112;16.280;2023-02-22T00:01:01;3.28;;;2.42;;
54787;SDS011;59598;48.112;16.280;2023-02-22T00:03:37;2.00;;;1.75;;
54787;SDS011;59598;48.112;16.280;2023-02-22T00:06:14;2.03;;;1.70;;
54787;SDS011;59598;48.112;16.280;2023-02-22T00:08:46;2.15;;;1.70;;
54787;SDS011;59598;48.112;16.280;2023-02-22T00:11:19;1.90;;;1.60;;
54787;SDS011;59598;48.112;16.280;2023-02-22T00:13:52;2.85;;;1.60;;
54787;SDS011;59598;48.112;16.280;2023-02-22T00:16:26;2.17;;;1.92;;
54787;SDS011;59598;48.112;16.280;2023-02-22T00:18:58;2.00;;;1.80;;
54787;SDS011;59598;48.112;16.280;2023-02-22T00:21:29;2.25;;;1.77;;
54787;SDS011;59598;48.112;16.280;2023-02-22T00:24:06;3.00;;;1.95;;
54787;SDS011;59598;48.112;16.280;2023-02-22T00:26:53;3.22;;;2.00;;
54787;SDS011;59598;48.112;16.280;2023-02-22T00:29:25;2.95;;;1.90;;
54787;SDS011;59598;48.112;16.280;2023-02-22T00:31:59;2.13;;;1.85;;
54787;SDS011;59598;48.112;16.280;2023-02-22T00:34:30;2.28;;;1.70;;
54787;SDS011;59598;48.112;16.280;2023-02-22T00:37:01;3.50;;;1.92;;
54787;SDS011;59598;48.112;16.280;2023-02-22T00:39:34;1.87;;;1.77;;
54787;SDS011;59598;48.112;16.280;2023-02-22T00:42:06;2.88;;;1.85;;
54787;SDS011;59598;48.112;16.280;2023-02-22T00:44:44;2.42;;;2.20;;
54787;SDS011;59598;48.112;16.280;2023-02-22T00:47:15;1.98;;;1.80;;
54787;SDS011;59598;48.112;16.280;2023-02-22T00:49:46;2.20;;;2.00;;
54787;SDS011;59598;48.112;16.280;2023-02-22T00:52:20;2.13;;;1.93;;
54787;SDS011;59598;48.112;16.280;2023-02-22T00:54:53;2.53;;;1.80;;
54787;SDS011;59598;48.112;16.280;2023-02-22T00:57:29;2.45;;;2.00;;
54787;SDS011;59598;48.112;16.280;2023-02-22T01:00:05;3.15;;;1.90;;
54787;SDS011;59598;48.112;16.280;2023-02-22T01:02:42;2.20;;;2.00;;
54787;SDS011;59598;48.112;16.280;2023-02-22T01:05:13;1.80;;;1.65;;
54787;SDS011;59598;48.112;16.280;2023-02-22T01:07:46;2.08;;;1.70;;
54787;SDS011;59598;48.112;16.280;2023-02-22T01:10:19;2.10;;;1.90;;
54787;SDS011;59598;48.112;16.280;2023-02-22T01:12:52;2.60;;;1.60;;
54787;SDS011;59598;48.112;16.280;2023-02-22T01:15:25;2.22;;;2.03;;
54787;SDS011;59598;48.112;16.280;2023-02-22T01:18:00;3.53;;;1.67;;
54787;SDS011;59598;48.112;16.280;2023-02-22T01:20:31;2.20;;;1.63;;
54787;SDS011;59598;48.112;16.280;2023-02-22T01:23:03;1.90;;;1.65;;
54787;SDS011;59598;48.112;16.280;2023-02-22T01:25:37;2.47;;;2.15;;
54787;SDS011;59598;48.112;16.280;2023-02-22T01:28:08;3.50;;;1.60;;
54787;SDS011;59598;48.112;16.280;2023-02-22T01:30:40;1.60;;;1.50;;
54787;SDS011;59598;48.112;16.280;2023-02-22T01:33:14;3.58;;;1.95;;
54787;SDS011;59598;48.112;16.280;2023-02-22T01:35:45;2.47;;;1.70;;
54787;SDS011;59598;48.112;16.280;2023-02-22T01:38:17;2.33;;;1.60;;
54787;SDS011;59598;48.112;16.280;2023-02-22T01:40:48;2.33;;;2.08;;
54787;SDS011;59598;48.112;16.280;2023-02-22T01:43:25;2.42;;;2.03;;
54787;SDS011;59598;48.112;16.280;2023-02-22T01:48:57;3.88;;;1.88;;
54787;SDS011;59598;48.112;16.280;2023-02-22T01:51:31;1.90;;;1.70;;
54787;SDS011;59598;48.112;16.280;2023-02-22T01:54:14;3.03;;;2.50;;
54787;SDS011;59598;48.112;16.280;2023-02-22T01:59:39;2.40;;;2.17;;
54787;SDS011;59598;48.112;16.280;2023-02-22T02:02:13;3.83;;;1.77;;
54787;SDS011;59598;48.112;16.280;2023-02-22T02:04:45;4.20;;;1.80;;
54787;SDS011;59598;48.112;16.280;2023-02-22T02:07:18;2.25;;;2.00;;
54787;SDS011;59598;48.112;16.280;2023-02-22T02:09:54;2.47;;;2.05;;
54787;SDS011;59598;48.112;16.280;2023-02-22T02:12:29;3.03;;;1.40;;
54787;SDS011;59598;48.112;16.280;2023-02-22T02:18:05;2.70;;;1.73;;
54787;SDS011;59598;48.112;16.280;2023-02-22T02:26:57;2.80;;;2.08;;
54787;SDS011;59598;48.112;16.280;2023-02-22T02:38:37;2.85;;;2.00;;
54787;SDS011;59598;48.112;16.280;2023-02-22T02:41:29;2.70;;;1.83;;
54787;SDS011;59598;48.112;16.280;2023-02-22T02:44:28;2.40;;;2.10;;
54787;SDS011;59598;48.112;16.280;2023-02-22T02:47:08;2.15;;;1.95;;
54787;SDS011;59598;48.112;16.280;2023-02-22T02:52:57;2.15;;;1.95;;
54787;SDS011;59598;48.112;16.280;2023-02-22T02:55:33;4.75;;;1.80;;
54787;SDS011;59598;48.112;16.280;2023-02-22T02:58:16;2.40;;;1.95;;
54787;SDS011;59598;48.112;16.280;2023-02-22T03:00:51;2.42;;;1.88;;
54787;SDS011;59598;48.112;16.280;2023-02-22T03:06:21;2.80;;;2.03;;
54787;SDS011;59598;48.112;16.280;2023-02-22T03:09:18;2.78;;;2.20;;
54787;SDS011;59598;48.112;16.280;2023-02-22T03:12:10;3.05;;;2.17;;
54787;SDS011;59598;48.112;16.280;2023-02-22T03:15:05;2.25;;;2.05;;
54787;SDS011;59598;48.112;16.280;2023-02-22T03:18:07;2.63;;;2.38;;
54787;SDS011;59598;48.112;16.280;2023-02-22T03:20:49;2.42;;;2.00;;
54787;SDS011;59598;48.112;16.280;2023-02-22T03:26:22;1.75;;;1.65;;
54787;SDS011;59598;48.112;16.280;2023-02-22T03:28:58;1.63;;;1.52;;
54787;SDS011;59598;48.112;16.280;2023-02-22T03:31:35;4.47;;;2.15;;
54787;SDS011;59598;48.112;16.280;2023-02-22T03:34:12;3.75;;;1.90;;
54787;SDS011;59598;48.112;16.280;2023-02-22T03:36:56;2.03;;;1.83;;
54787;SDS011;59598;48.112;16.280;2023-02-22T03:39:36;2.33;;;1.98;;
54787;SDS011;59598;48.112;16.280;2023-02-22T03:42:09;2.58;;;1.88;;
54787;SDS011;59598;48.112;16.280;2023-02-22T03:44:45;3.33;;;2.20;;
54787;SDS011;59598;48.112;16.280;2023-02-22T03:47:21;2.47;;;2.03;;
54787;SDS011;59598;48.112;16.280;2023-02-22T03:50:19;4.88;;;2.20;;
54787;SDS011;59598;48.112;16.280;2023-02-22T03:53:11;4.78;;;2.13;;
54787;SDS011;59598;48.112;16.280;2023-02-22T03:55:46;2.10;;;1.90;;
54787;SDS011;59598;48.112;16.280;2023-02-22T03:58:22;2.30;;;1.90;;
54787;SDS011;59598;48.112;16.280;2023-02-22T04:00:55;4.18;;;1.92;;
54787;SDS011;59598;48.112;16.280;2023-02-22T04:03:26;2.22;;;1.95;;
54787;SDS011;59598;48.112;16.280;2023-02-22T04:05:59;3.58;;;2.65;;
54787;SDS011;59598;48.112;16.280;2023-02-22T04:08:31;2.45;;;2.25;;
54787;SDS011;59598;48.112;16.280;2023-02-22T04:11:04;2.28;;;2.08;;
54787;SDS011;59598;48.112;16.280;2023-02-22T04:13:35;2.80;;;1.63;;
54787;SDS011;59598;48.112;16.280;2023-02-22T04:16:07;2.53;;;2.10;;
54787;SDS011;59598;48.112;16.280;2023-02-22T04:18:38;3.53;;;2.30;;
54787;SDS011;59598;48.112;16.280;2023-02-22T04:21:12;2.30;;;2.10;;
54787;SDS011;59598;48.112;16.280;2023-02-22T04:23:44;2.28;;;1.77;;
54787;SDS011;59598;48.112;16.280;2023-02-22T04:26:15;5.82;;;2.00;;
54787;SDS011;59598;48.112;16.280;2023-02-22T04:28:47;2.15;;;1.95;;
54787;SDS011;59598;48.112;16.280;2023-02-22T04:31:20;3.75;;;2.03;;
54787;SDS011;59598;48.112;16.280;2023-02-22T04:33:52;2.00;;;1.80;;
54787;SDS011;59598;48.112;16.280;2023-02-22T04:36:23;1.88;;;1.75;;
54787;SDS011;59598;48.112;16.280;2023-02-22T04:38:57;2.63;;;2.13;;
54787;SDS011;59598;48.112;16.280;2023-02-22T04:41:29;1.52;;;1.27;;
54787;SDS011;59598;48.112;16.280;2023-02-22T04:44:05;3.33;;;2.20;;
54787;SDS011;59598;48.112;16.280;2023-02-22T04:46:36;3.55;;;1.80;;
54787;SDS011;59598;48.112;16.280;2023-02-22T04:49:09;3.05;;;1.90;;
54787;SDS011;59598;48.112;16.280;2023-02-22T04:51:43;2.17;;;1.92;;
54787;SDS011;59598;48.112;16.280;2023-02-22T04:54:18;2.50;;;2.22;;
54787;SDS011;59598;48.112;16.280;2023-02-22T04:56:53;2.38;;;2.15;;
54787;SDS011;59598;48.112;16.280;2023-02-22T04:59:27;3.95;;;2.30;;
54787;SDS011;59598;48.112;16.280;2023-02-22T05:02:02;2.40;;;1.85;;
54787;SDS011;59598;48.112;16.280;2023-02-22T05:04:33;2.80;;;1.92;;
54787;SDS011;59598;48.112;16.280;2023-02-22T05:07:07;3.95;;;2.25;;
54787;SDS011;59598;48.112;16.280;2023-02-22T05:10:02;2.50;;;2.28;;
54787;SDS011;59598;48.112;16.280;2023-02-22T05:12:35;2.40;;;2.10;;
54787;SDS011;59598;48.112;16.280;2023-02-22T05:15:06;2.28;;;1.95;;
54787;SDS011;59598;48.112;16.280;2023-02-22T05:17:39;3.13;;;2.17;;
54787;SDS011;59598;48.112;16.280;2023-02-22T05:20:32;2.85;;;2.15;;
54787;SDS011;59598;48.112;16.280;2023-02-22T05:23:05;2.53;;;2.20;;
54787;SDS011;59598;48.112;16.280;2023-02-22T05:25:36;2.85;;;1.90;;
54787;SDS011;59598;48.112;16.280;2023-02-22T05:28:10;2.55;;;2.03;;
54787;SDS011;59598;48.112;16.280;2023-02-22T05:30:50;3.72;;;3.00;;
54787;SDS011;59598;48.112;16.280;2023-02-22T05:33:24;6.53;;;2.70;;
54787;SDS011;59598;48.112;16.280;2023-02-22T05:35:55;3.33;;;2.20;;
54787;SDS011;59598;48.112;16.280;2023-02-22T05:38:29;4.10;;;2.40;;
54787;SDS011;59598;48.112;16.280;2023-02-22T05:41:06;6.95;;;2.05;;
54787;SDS011;59598;48.112;16.280;2023-02-22T05:43:38;3.10;;;2.00;;
54787;SDS011;59598;48.112;16.280;2023-02-22T05:46:14;2.63;;;2.42;;
54787;SDS011;59598;48.112;16.280;2023-02-22T05:48:48;2.60;;;2.40;;
54787;SDS011;59598;48.112;16.280;2023-02-22T05:51:19;2.85;;;2.20;;
54787;SDS011;59598;48.112;16.280;2023-02-22T05:53:50;2.42;;;2.20;;
54787;SDS011;59598;48.112;16.280;2023-02-22T05:56:25;4.43;;;2.50;;
54787;SDS011;59598;48.112;16.280;2023-02-22T05:58:57;4.00;;;2.35;;
54787;SDS011;59598;48.112;16.280;2023-02-22T06:01:31;5.32;;;3.20;;
54787;SDS011;59598;48.112;16.280;2023-02-22T06:04:05;2.83;;;2.10;;
54787;SDS011;59598;48.112;16.280;2023-02-22T06:06:39;3.28;;;2.20;;
54787;SDS011;59598;48.112;16.280;2023-02-22T06:09:10;4.57;;;2.00;;
54787;SDS011;59598;48.112;16.280;2023-02-22T06:11:44;5.80;;;2.97;;
54787;SDS011;59598;48.112;16.280;2023-02-22T06:14:19;2.35;;;2.00;;
54787;SDS011;59598;48.112;16.280;2023-02-22T06:16:53;2.63;;;1.77;;
54787;SDS011;59598;48.112;16.280;2023-02-22T06:19:26;2.38;;;1.88;;
54787;SDS011;59598;48.112;16.280;2023-02-22T06:22:03;3.45;;;2.40;;
54787;SDS011;59598;48.112;16.280;2023-02-22T06:27:07;5.88;;;2.78;;
54787;SDS011;59598;48.112;16.280;2023-02-22T06:29:39;4.35;;;2.60;;
54787;SDS011;59598;48.112;16.280;2023-02-22T06:32:16;2.90;;;2.38;;
54787;SDS011;59598;48.112;16.280;2023-02-22T06:34:47;2.53;;;2.17;;
54787;SDS011;59598;48.112;16.280;2023-02-22T06:37:19;3.05;;;2.40;;
54787;SDS011;59598;48.112;16.280;2023-02-22T06:39:53;4.70;;;2.90;;
54787;SDS011;59598;48.112;16.280;2023-02-22T06:42:25;6.07;;;3.85;;
54787;SDS011;59598;48.112;16.280;2023-02-22T06:44:58;6.20;;;3.15;;
54787;SDS011;59598;48.112;16.280;2023-02-22T06:47:29;7.72;;;4.55;;
54787;SDS011;59598;48.112;16.280;2023-02-22T06:50:03;7.90;;;5.13;;
54787;SDS011;59598;48.112;16.280;2023-02-22T06:52:34;6.13;;;3.95;;
54787;SDS011;59598;48.112;16.280;2023-02-22T06:55:06;7.88;;;4.18;;
54787;SDS011;59598;48.112;16.280;2023-02-22T06:57:37;5.30;;;3.40;;
54787;SDS011;59598;48.112;16.280;2023-02-22T07:00:09;9.30;;;4.53;;
54787;SDS011;59598;48.112;16.280;2023-02-22T07:02:41;12.38;;;5.88;;
54787;SDS011;59598;48.112;16.280;2023-02-22T07:05:15;11.00;;;5.88;;
54787;SDS011;59598;48.112;16.280;2023-02-22T07:07:49;10.48;;;5.15;;
54787;SDS011;59598;48.112;16.280;2023-02-22T07:10:25;9.63;;;4.93;;
54787;SDS011;59598;48.112;16.280;2023-02-22T07:12:58;5.35;;;3.20;;
54787;SDS011;59598;48.112;16.280;2023-02-22T07:15:33;4.78;;;2.58;;
54787;SDS011;59598;48.112;16.280;2023-02-22T07:18:05;3.45;;;2.58;;
54787;SDS011;59598;48.112;16.280;2023-02-22T07:20:36;3.70;;;2.75;;
54787;SDS011;59598;48.112;16.280;2023-02-22T07:23:08;3.50;;;2.40;;
54787;SDS011;59598;48.112;16.280;2023-02-22T07:25:39;4.28;;;2.92;;
54787;SDS011;59598;48.112;16.280;2023-02-22T07:30:47;6.97;;;2.65;;
54787;SDS011;59598;48.112;16.280;2023-02-22T07:33:18;3.35;;;2.58;;
54787;SDS011;59598;48.112;16.280;2023-02-22T07:35:50;3.95;;;2.60;;
54787;SDS011;59598;48.112;16.280;2023-02-22T07:38:21;4.35;;;3.40;;
54787;SDS011;59598;48.112;16.280;2023-02-22T07:40:52;3.10;;;2.47;;
54787;SDS011;59598;48.112;16.280;2023-02-22T07:43:24;2.75;;;2.42;;
54787;SDS011;59598;48.112;16.280;2023-02-22T07:45:58;3.63;;;2.10;;
54787;SDS011;59598;48.112;16.280;2023-02-22T07:48:34;3.22;;;2.10;;
54787;SDS011;59598;48.112;16.280;2023-02-22T07:51:05;3.85;;;2.20;;
54787;SDS011;59598;48.112;16.280;2023-02-22T07:53:36;3.53;;;2.25;;
54787;SDS011;59598;48.112;16.280;2023-02-22T07:56:10;2.83;;;2.25;;
54787;SDS011;59598;48.112;16.280;2023-02-22T07:58:47;2.58;;;2.20;;
54787;SDS011;59598;48.112;16.280;2023-02-22T08:01:23;2.65;;;2.33;;
54787;SDS011;59598;48.112;16.280;2023-02-22T08:03:57;2.70;;;2.13;;
54787;SDS011;59598;48.112;16.280;2023-02-22T08:06:28;4.03;;;2.60;;
54787;SDS011;59598;48.112;16.280;2023-02-22T08:09:01;2.55;;;1.90;;
54787;SDS011;59598;48.112;16.280;2023-02-22T08:11:34;3.00;;;2.70;;
54787;SDS011;59598;48.112;16.280;2023-02-22T08:14:06;5.63;;;3.42;;
54787;SDS011;59598;48.112;16.280;2023-02-22T08:16:40;3.58;;;3.05;;
54787;SDS011;59598;48.112;16.280;2023-02-22T08:19:11;3.72;;;2.80;;
54787;SDS011;59598;48.112;16.280;2023-02-22T08:21:42;3.88;;;3.05;;
54787;SDS011;59598;48.112;16.280;2023-02-22T08:24:15;3.45;;;2.45;;
54787;SDS011;59598;48.112;16.280;2023-02-22T08:26:46;2.15;;;1.83;;
54787;SDS011;59598;48.112;16.280;2023-02-22T08:29:18;2.13;;;1.80;;
54787;SDS011;59598;48.112;16.280;2023-02-22T08:31:50;7.07;;;1.90;;
54787;SDS011;59598;48.112;16.280;2023-02-22T08:34:26;2.67;;;2.08;;
54787;SDS011;59598;48.112;16.280;2023-02-22T08:37:00;2.88;;;1.70;;
54787;SDS011;59598;48.112;16.280;2023-02-22T08:39:31;2.70;;;1.90;;
54787;SDS011;59598;48.112;16.280;2023-02-22T08:42:05;4.00;;;2.42;;
54787;SDS011;59598;48.112;16.280;2023-02-22T08:44:38;1.70;;;1.60;;
54787;SDS011;59598;48.112;16.280;2023-02-22T08:47:10;2.45;;;1.95;;
54787;SDS011;59598;48.112;16.280;2023-02-22T08:49:44;1.60;;;1.45;;
54787;SDS011;59598;48.112;16.280;2023-02-22T08:52:19;16.08;;;9.98;;
54787;SDS011;59598;48.112;16.280;2023-02-22T08:54:51;4.18;;;3.00;;
54787;SDS011;59598;48.112;16.280;2023-02-22T08:57:22;3.55;;;2.42;;
54787;SDS011;59598;48.112;16.280;2023-02-22T08:59:53;2.40;;;1.65;;
54787;SDS011;59598;48.112;16.280;2023-02-22T09:02:25;2.13;;;1.70;;
54787;SDS011;59598;48.112;16.280;2023-02-22T09:04:58;2.70;;;1.85;;
54787;SDS011;59598;48.112;16.280;2023-02-22T09:07:34;4.13;;;1.75;;
54787;SDS011;59598;48.112;16.280;2023-02-22T09:10:11;1.80;;;1.60;;
54787;SDS011;59598;48.112;16.280;2023-02-22T09:12:47;1.85;;;1.60;;
54787;SDS011;59598;48.112;16.280;2023-02-22T09:15:18;2.33;;;1.90;;
54787;SDS011;59598;48.112;16.280;2023-02-22T09:17:52;1.98;;;1.75;;
54787;SDS011;59598;48.112;16.280;2023-02-22T09:20:24;2.20;;;1.58;;
54787;SDS011;59598;48.112;16.280;2023-02-22T09:22:55;2.35;;;2.15;;
54787;SDS011;59598;48.112;16.280;2023-02-22T09:25:29;2.03;;;1.83;;
54787;SDS011;59598;48.112;16.280;2023-02-22T09:28:01;1.75;;;1.60;;
54787;SDS011;59598;48.112;16.280;2023-02-22T09:30:34;3.70;;;1.85;;
54787;SDS011;59598;48.112;16.280;2023-02-22T09:33:11;2.85;;;2.45;;
54787;SDS011;59598;48.112;16.280;2023-02-22T09:35:49;3.53;;;2.08;;
54787;SDS011;59598;48.112;16.280;2023-02-22T09:38:21;2.40;;;1.88;;
54787;SDS011;59598;48.112;16.280;2023-02-22T09:41:00;1.85;;;1.65;;
54787;SDS011;59598;48.112;16.280;2023-02-22T09:44:10;4.63;;;2.20;;
54787;SDS011;59598;48.112;16.280;2023-02-22T09:46:50;3.00;;;1.90;;
54787;SDS011;59598;48.112;16.280;2023-02-22T09:49:31;2.13;;;1.85;;
54787;SDS011;59598;48.112;16.280;2023-02-22T09:57:39;1.65;;;1.50;;
54787;SDS011;59598;48.112;16.280;2023-02-22T10:00:17;2.43;;;1.97;;
54787;SDS011;59598;48.112;16.280;2023-02-22T10:06:04;1.70;;;1.60;;
54787;SDS011;59598;48.112;16.280;2023-02-22T10:08:41;1.83;;;1.73;;
54787;SDS011;59598;48.112;16.280;2023-02-22T10:14:08;1.52;;;1.42;;
54787;SDS011;59598;48.112;16.280;2023-02-22T10:25:19;3.15;;;2.05;;
54787;SDS011;59598;48.112;16.280;2023-02-22T10:28:00;1.90;;;1.58;;
54787;SDS011;59598;48.112;16.280;2023-02-22T10:30:53;2.78;;;2.08;;
54787;SDS011;59598;48.112;16.280;2023-02-22T10:33:32;2.33;;;1.75;;
54787;SDS011;59598;48.112;16.280;2023-02-22T10:36:16;4.30;;;2.53;;
54787;SDS011;59598;48.112;16.280;2023-02-22T10:41:54;2.33;;;1.92;;
54787;SDS011;59598;48.112;16.280;2023-02-22T10:44:30;1.73;;;1.60;;
54787;SDS011;59598;48.112;16.280;2023-02-22T10:49:45;1.70;;;1.60;;
54787;SDS011;59598;48.112;16.280;2023-02-22T10:52:31;2.50;;;1.85;;
54787;SDS011;59598;48.112;16.280;2023-02-22T10:55:03;2.33;;;2.13;;
54787;SDS011;59598;48.112;16.280;2023-02-22T10:57:48;2.63;;;1.80;;
54787;SDS011;59598;48.112;16.280;2023-02-22T11:00:32;5.68;;;2.05;;
54787;SDS011;59598;48.112;16.280;2023-02-22T11:03:18;2.88;;;2.20;;
54787;SDS011;59598;48.112;16.280;2023-02-22T11:05:57;3.15;;;2.10;;
54787;SDS011;59598;48.112;16.280;2023-02-22T11:08:51;2.33;;;2.00;;
54787;SDS011;59598;48.112;16.280;2023-02-22T11:11:42;2.08;;;1.77;;
54787;SDS011;59598;48.112;16.280;2023-02-22T11:14:28;2.85;;;1.88;;
54787;SDS011;59598;48.112;16.280;2023-02-22T11:17:05;2.38;;;2.15;;
54787;SDS011;59598;48.112;16.280;2023-02-22T11:19:46;3.03;;;2.38;;
54787;SDS011;59598;48.112;16.280;2023-02-22T11:22:24;3.38;;;2.08;;
54787;SDS011;59598;48.112;16.280;2023-02-22T11:25:00;2.33;;;2.10;;
54787;SDS011;59598;48.112;16.280;2023-02-22T11:27:38;3.53;;;2.30;;
54787;SDS011;59598;48.112;16.280;2023-02-22T11:30:29;3.25;;;2.10;;
54787;SDS011;59598;48.112;16.280;2023-02-22T11:38:29;2.17;;;1.95;;
54787;SDS011;59598;48.112;16.280;2023-02-22T11:41:20;2.85;;;2.10;;
54787;SDS011;59598;48.112;16.280;2023-02-22T11:47:01;2.67;;;2.28;;
54787;SDS011;59598;48.112;16.280;2023-02-22T11:49:37;3.17;;;2.15;;
54787;SDS011;59598;48.112;16.280;2023-02-22T11:52:23;2.60;;;2.33;;
54787;SDS011;59598;48.112;16.280;2023-02-22T12:01:01;3.43;;;2.10;;
54787;SDS011;59598;48.112;16.280;2023-02-22T12:06:54;3.83;;;2.10;;
54787;SDS011;59598;48.112;16.280;2023-02-22T12:18:42;3.40;;;2.53;;
54787;SDS011;59598;48.112;16.280;2023-02-22T12:21:35;4.05;;;2.85;;
54787;SDS011;59598;48.112;16.280;2023-02-22T12:24:14;3.50;;;2.65;;
54787;SDS011;59598;48.112;16.280;2023-02-22T12:32:15;4.70;;;2.55;;
54787;SDS011;59598;48.112;16.280;2023-02-22T12:35:13;4.35;;;2.92;;
54787;SDS011;59598;48.112;16.280;2023-02-22T12:44:09;4.25;;;2.35;;
54787;SDS011;59598;48.112;16.280;2023-02-22T12:46:51;3.88;;;2.28;;
54787;SDS011;59598;48.112;16.280;2023-02-22T12:54:49;5.05;;;2.10;;
54787;SDS011;59598;48.112;16.280;2023-02-22T12:57:30;2.78;;;2.17;;
54787;SDS011;59598;48.112;16.280;2023-02-22T13:00:19;2.75;;;2.30;;
54787;SDS011;59598;48.112;16.280;2023-02-22T13:12:11;2.95;;;2.28;;
54787;SDS011;59598;48.112;16.280;2023-02-22T13:20:13;3.38;;;2.40;;
54787;SDS011;59598;48.112;16.280;2023-02-22T13:25:36;8.82;;;3.33;;
54787;SDS011;59598;48.112;16.280;2023-02-22T13:46:32;8.63;;;2.70;;
54787;SDS011;59598;48.112;16.280;2023-02-22T13:52:15;6.25;;;2.78;;
54787;SDS011;59598;48.112;16.280;2023-02-22T13:54:50;5.47;;;2.72;;
54787;SDS011;59598;48.112;16.280;2023-02-22T13:57:38;7.25;;;2.88;;
54787;SDS011;59598;48.112;16.280;2023-02-22T14:00:19;5.75;;;2.75;;
54787;SDS011;59598;48.112;16.280;2023-02-22T14:10:49;7.82;;;2.95;;
54787;SDS011;59598;48.112;16.280;2023-02-22T14:13:23;4.93;;;2.83;;
54787;SDS011;59598;48.112;16.280;2023-02-22T14:18:40;7.35;;;2.90;;
54787;SDS011;59598;48.112;16.280;2023-02-22T14:21:18;5.43;;;3.15;;
54787;SDS011;59598;48.112;16.280;2023-02-22T14:23:51;3.17;;;2.38;;
54787;SDS011;59598;48.112;16.280;2023-02-22T14:26:32;5.57;;;2.92;;
54787;SDS011;59598;48.112;16.280;2023-02-22T14:36:55;5.32;;;3.30;;
54787;SDS011;59598;48.112;16.280;2023-02-22T14:39:33;5.68;;;3.10;;
54787;SDS011;59598;48.112;16.280;2023-02-22T14:53:23;5.80;;;3.60;;
54787;SDS011;59598;48.112;16.280;2023-02-22T14:59:20;4.03;;;3.25;;
54787;SDS011;59598;48.112;16.280;2023-02-22T15:02:03;6.95;;;3.50;;
54787;SDS011;59598;48.112;16.280;2023-02-22T15:04:48;5.82;;;3.47;;
54787;SDS011;59598;48.112;16.280;2023-02-22T15:07:26;6.70;;;3.90;;
54787;SDS011;59598;48.112;16.280;2023-02-22T15:12:36;4.30;;;3.60;;
54787;SDS011;59598;48.112;16.280;2023-02-22T15:15:15;6.13;;;3.45;;
54787;SDS011;59598;48.112;16.280;2023-02-22T15:17:54;6.15;;;3.25;;
54787;SDS011;59598;48.112;16.280;2023-02-22T15:20:27;9.18;;;4.30;;
54787;SDS011;59598;48.112;16.280;2023-02-22T15:22:59;6.72;;;3.72;;
54787;SDS011;59598;48.112;16.280;2023-02-22T15:25:38;5.97;;;3.90;;
54787;SDS011;59598;48.112;16.280;2023-02-22T15:28:11;8.75;;;3.80;;
54787;SDS011;59598;48.112;16.280;2023-02-22T15:30:44;6.28;;;3.90;;
54787;SDS011;59598;48.112;16.280;2023-02-22T15:33:17;5.45;;;3.80;;
54787;SDS011;59598;48.112;16.280;2023-02-22T15:35:54;4.53;;;3.35;;
54787;SDS011;59598;48.112;16.280;2023-02-22T15:38:27;4.95;;;3.28;;
54787;SDS011;59598;48.112;16.280;2023-02-22T15:41:04;5.07;;;3.67;;
54787;SDS011;59598;48.112;16.280;2023-02-22T15:43:37;4.88;;;3.33;;
54787;SDS011;59598;48.112;16.280;2023-02-22T15:46:10;5.70;;;3.25;;
54787;SDS011;59598;48.112;16.280;2023-02-22T15:51:43;9.68;;;3.83;;
54787;SDS011;59598;48.112;16.280;2023-02-22T15:54:18;12.07;;;3.85;;
54787;SDS011;59598;48.112;16.280;2023-02-22T15:56:51;5.97;;;3.80;;
54787;SDS011;59598;48.112;16.280;2023-02-22T15:59:28;4.93;;;3.78;;
54787;SDS011;59598;48.112;16.280;2023-02-22T16:02:04;6.75;;;2.90;;
54787;SDS011;59598;48.112;16.280;2023-02-22T16:04:35;7.97;;;3.92;;
54787;SDS011;59598;48.112;16.280;2023-02-22T16:07:07;5.93;;;3.58;;
54787;SDS011;59598;48.112;16.280;2023-02-22T16:09:47;6.95;;;3.47;;
54787;SDS011;59598;48.112;16.280;2023-02-22T16:14:51;3.58;;;2.78;;
54787;SDS011;59598;48.112;16.280;2023-02-22T16:22:43;3.58;;;2.70;;
54787;SDS011;59598;48.112;16.280;2023-02-22T16:25:25;5.95;;;3.63;;
54787;SDS011;59598;48.112;16.280;2023-02-22T16:28:03;8.80;;;4.60;;
54787;SDS011;59598;48.112;16.280;2023-02-22T16:30:56;7.47;;;3.55;;
54787;SDS011;59598;48.112;16.280;2023-02-22T16:33:30;4.28;;;3.28;;
54787;SDS011;59598;48.112;16.280;2023-02-22T16:36:04;4.97;;;3.45;;
54787;SDS011;59598;48.112;16.280;2023-02-22T16:38:38;4.45;;;3.38;;
54787;SDS011;59598;48.112;16.280;2023-02-22T16:41:15;5.97;;;3.50;;
54787;SDS011;59598;48.112;16.280;2023-02-22T16:46:20;6.60;;;3.45;;
54787;SDS011;59598;48.112;16.280;2023-02-22T16:48:51;6.03;;;2.80;;
54787;SDS011;59598;48.112;16.280;2023-02-22T16:51:25;8.20;;;3.40;;
54787;SDS011;59598;48.112;16.280;2023-02-22T16:54:00;4.43;;;3.47;;
54787;SDS011;59598;48.112;16.280;2023-02-22T16:56:32;6.78;;;3.67;;
54787;SDS011;59598;48.112;16.280;2023-02-22T16:59:07;7.38;;;3.60;;
54787;SDS011;59598;48.112;16.280;2023-02-22T17:01:44;7.97;;;3.60;;
54787;SDS011;59598;48.112;16.280;2023-02-22T17:04:18;5.43;;;3.92;;
54787;SDS011;59598;48.112;16.280;2023-02-22T17:09:22;7.20;;;4.68;;
54787;SDS011;59598;48.112;16.280;2023-02-22T17:11:53;5.85;;;4.05;;
54787;SDS011;59598;48.112;16.280;2023-02-22T17:17:01;13.32;;;4.43;;
54787;SDS011;59598;48.112;16.280;2023-02-22T17:19:35;6.15;;;4.00;;
54787;SDS011;59598;48.112;16.280;2023-02-22T17:22:06;6.90;;;4.53;;
54787;SDS011;59598;48.112;16.280;2023-02-22T17:24:41;7.35;;;4.90;;
54787;SDS011;59598;48.112;16.280;2023-02-22T17:27:13;6.90;;;4.93;;
54787;SDS011;59598;48.112;16.280;2023-02-22T17:29:44;9.98;;;4.57;;
54787;SDS011;59598;48.112;16.280;2023-02-22T17:32:15;7.65;;;4.45;;
54787;SDS011;59598;48.112;16.280;2023-02-22T17:34:46;8.38;;;5.43;;
54787;SDS011;59598;48.112;16.280;2023-02-22T17:37:17;9.45;;;5.28;;
54787;SDS011;59598;48.112;16.280;2023-02-22T17:39:50;6.45;;;4.97;;
54787;SDS011;59598;48.112;16.280;2023-02-22T17:42:22;7.55;;;5.07;;
54787;SDS011;59598;48.112;16.280;2023-02-22T17:44:56;10.85;;;5.90;;
54787;SDS011;59598;48.112;16.280;2023-02-22T17:47:27;9.27;;;6.00;;
54787;SDS011;59598;48.112;16.280;2023-02-22T17:49:58;8.98;;;5.40;;
54787;SDS011;59598;48.112;16.280;2023-02-22T17:52:29;8.00;;;4.95;;
54787;SDS011;59598;48.112;16.280;2023-02-22T17:55:03;11.55;;;5.97;;
54787;SDS011;59598;48.112;16.280;2023-02-22T17:57:35;11.18;;;6.75;;
54787;SDS011;59598;48.112;16.280;2023-02-22T18:00:12;8.07;;;5.65;;
54787;SDS011;59598;48.112;16.280;2023-02-22T18:02:52;11.35;;;6.28;;
54787;SDS011;59598;48.112;16.280;2023-02-22T18:05:24;9.80;;;6.75;;
54787;SDS011;59598;48.112;16.280;2023-02-22T18:07:56;8.63;;;5.47;;
54787;SDS011;59598;48.112;16.280;2023-02-22T18:10:30;10.77;;;6.38;;
54787;SDS011;59598;48.112;16.280;2023-02-22T18:13:02;14.37;;;6.63;;
54787;SDS011;59598;48.112;16.280;2023-02-22T18:15:33;12.27;;;6.78;;
54787;SDS011;59598;48.112;16.280;2023-02-22T18:18:06;10.07;;;5.90;;
54787;SDS011;59598;48.112;16.280;2023-02-22T18:20:40;11.25;;;6.20;;
54787;SDS011;59598;48.112;16.280;2023-02-22T18:23:14;9.23;;;6.70;;
54787;SDS011;59598;48.112;16.280;2023-02-22T18:25:51;11.10;;;7.43;;
54787;SDS011;59598;48.112;16.280;2023-02-22T18:28:22;18.98;;;7.75;;
54787;SDS011;59598;48.112;16.280;2023-02-22T18:30:53;11.35;;;6.95;;
54787;SDS011;59598;48.112;16.280;2023-02-22T18:33:33;9.95;;;6.95;;
54787;SDS011;59598;48.112;16.280;2023-02-22T18:38:40;11.70;;;7.35;;
54787;SDS011;59598;48.112;16.280;2023-02-22T18:41:13;12.60;;;6.82;;
54787;SDS011;59598;48.112;16.280;2023-02-22T18:43:49;11.70;;;7.75;;
54787;SDS011;59598;48.112;16.280;2023-02-22T18:46:21;11.10;;;7.10;;